Time;durP1;ratioP1;P1;durP2;ratioP2;P2;SDS_P1;SDS_P2;PMS_P1;PMS_P2;Temp;Humidity;BMP_temperature;BMP_pressure;BME280_temperature;BME280_humidity;BME280_pressure;Samples;Min_cycle;Max_cycle;Signal;HPM_P1;HPM_P2
2022/05/15 00:02:01;;;;;;;0.30;0.22;;;;;;;29.76;31.92;96876.28;5080449;28;20042;-31
2022/05/15 00:04:26;;;;;;;0.30;0.22;;;;;;;29.75;32.38;96875.44;5084564;28;20023;-28
2022/05/15 00:06:52;;;;;;;0.17;0.17;;;;;;;29.75;32.00;96871.97;5084522;28;20023;-31
2022/05/15 00:09:17;;;;;;;0.20;0.20;;;;;;;29.75;32.19;96870.16;5086032;28;20019;-31
2022/05/15 00:11:43;;;;;;;0.20;0.20;;;;;;;29.75;32.25;96869.34;5083643;28;20042;-29
2022/05/15 00:14:08;;;;;;;0.10;0.10;;;;;;;29.75;32.46;96866.69;5080643;28;20394;-29
2022/05/15 00:16:34;;;;;;;0.30;0.28;;;;;;;29.76;32.06;96868.38;5082777;28;20019;-30
2022/05/15 00:18:59;;;;;;;0.30;0.30;;;;;;;29.75;32.18;96861.41;5083722;28;20032;-31
2022/05/15 00:21:24;;;;;;;0.20;0.20;;;;;;;29.73;32.27;96870.28;5082189;28;20042;-29
2022/05/15 00:23:50;;;;;;;0.10;0.10;;;;;;;29.73;32.51;96865.00;5085172;28;20035;-29
2022/05/15 00:26:15;;;;;;;0.10;0.10;;;;;;;29.73;32.21;96875.56;5083506;28;20713;-28
2022/05/15 00:28:41;;;;;;;0.22;0.22;;;;;;;29.73;32.47;96870.28;5082709;28;20457;-30
2022/05/15 00:31:07;;;;;;;0.38;0.20;;;;;;;29.73;32.11;96875.56;5082395;28;20024;-30
2022/05/15 00:33:32;;;;;;;0.20;0.20;;;;;;;29.73;32.27;96870.28;5084577;28;20127;-29
2022/05/15 00:35:58;;;;;;;0.20;0.20;;;;;;;29.74;32.40;96871.13;5082323;28;20032;-32
2022/05/15 00:38:23;;;;;;;0.57;0.30;;;;;;;29.72;32.42;96868.56;5080884;28;20039;-30
2022/05/15 00:40:49;;;;;;;0.30;0.20;;;;;;;29.72;32.12;96863.28;5081180;28;20059;-30
2022/05/15 00:43:54;;;;;;;0.20;0.20;;;;;;;29.72;32.09;96858.00;5084287;28;20818;-34
2022/05/15 00:46:41;;;;;;;0.20;0.20;;;;;;;29.72;32.27;96860.66;5007965;28;20036;-32
2022/05/15 00:49:08;;;;;;;0.20;0.20;;;;;;;29.72;32.17;96862.47;5007572;28;20144;-30
2022/05/15 00:51:39;;;;;;;0.30;0.22;;;;;;;29.73;32.33;96864.16;5053450;28;20040;-31
2022/05/15 00:54:13;;;;;;;0.22;0.20;;;;;;;29.72;31.99;96863.28;5085220;28;20028;-30
2022/05/15 00:56:41;;;;;;;0.38;0.30;;;;;;;29.71;32.36;96866.06;5081103;28;20089;-30
2022/05/15 00:59:12;;;;;;;0.25;0.25;;;;;;;29.70;32.24;96852.00;5084394;28;20027;-29
2022/05/15 01:01:37;;;;;;;0.30;0.30;;;;;;;29.69;32.30;96852.97;5084204;28;20035;-32
2022/05/15 01:04:03;;;;;;;1.58;0.30;;;;;;;29.70;32.29;96852.00;5085323;28;20043;-30
2022/05/15 01:06:29;;;;;;;0.20;0.20;;;;;;;29.70;32.11;96848.50;5081376;28;20666;-29
2022/05/15 01:08:54;;;;;;;1.45;0.20;;;;;;;29.69;32.09;96846.81;5084084;28;20859;-32
2022/05/15 01:11:20;;;;;;;0.20;0.20;;;;;;;29.69;32.41;96847.69;5082903;28;20031;-30
2022/05/15 01:13:47;;;;;;;0.10;0.10;;;;;;;29.69;32.38;96846.81;5078591;28;20969;-32
2022/05/15 01:16:14;;;;;;;0.30;0.20;;;;;;;29.68;32.05;96845.97;5080798;28;20135;-29
2022/05/15 01:18:39;;;;;;;0.35;0.30;;;;;;;29.69;32.14;96852.09;5078757;28;20028;-30
2022/05/15 01:21:22;;;;;;;0.65;0.30;;;;;;;29.68;32.02;96851.25;5083160;28;20092;-30
2022/05/15 01:23:48;;;;;;;0.10;0.10;;;;;;;29.68;31.92;96848.59;5080814;28;20621;-30
2022/05/15 01:26:13;;;;;;;0.10;0.10;;;;;;;29.68;32.13;96850.41;5084499;28;20035;-30
2022/05/15 01:28:39;;;;;;;0.20;0.20;;;;;;;29.67;32.27;96854.84;5082576;28;20102;-33
2022/05/15 01:31:04;;;;;;;0.15;0.15;;;;;;;29.67;31.91;96848.72;5079895;28;20024;-31
2022/05/15 01:33:29;;;;;;;0.30;0.30;;;;;;;29.67;32.36;96843.44;5081407;28;20044;-30
2022/05/15 01:35:55;;;;;;;0.20;0.10;;;;;;;29.65;31.79;96848.84;5083792;28;20054;-29
2022/05/15 01:38:20;;;;;;;0.10;0.10;;;;;;;29.66;32.15;96847.88;5080456;28;20450;-31
2022/05/15 01:40:47;;;;;;;0.10;0.10;;;;;;;29.65;31.94;96846.19;5080203;28;20032;-32
2022/05/15 01:43:13;;;;;;;0.20;0.15;;;;;;;29.65;32.00;96846.19;5081750;28;20684;-28
2022/05/15 01:45:38;;;;;;;0.20;0.20;;;;;;;29.65;32.12;96845.34;5080739;28;20027;-30
2022/05/15 01:48:04;;;;;;;0.20;0.20;;;;;;;29.64;32.22;96847.16;5078876;28;20105;-30
2022/05/15 01:50:29;;;;;;;0.17;0.10;;;;;;;29.65;32.25;96850.63;5082649;28;20035;-29
2022/05/15 01:52:55;;;;;;;0.25;0.10;;;;;;;29.64;32.38;96852.44;5082182;28;20066;-29
2022/05/15 01:55:20;;;;;;;0.57;0.20;;;;;;;29.64;31.91;96851.56;5080199;28;20032;-29
2022/05/15 01:57:46;;;;;;;0.47;0.28;;;;;;;29.64;32.28;96852.44;5080423;28;20031;-30
2022/05/15 02:00:14;;;;;;;0.30;0.25;;;;;;;29.63;32.00;96844.59;5083215;28;20119;-30
2022/05/15 02:02:40;;;;;;;0.20;0.20;;;;;;;29.63;32.31;96837.50;5082549;28;20095;-30
2022/05/15 02:05:06;;;;;;;0.20;0.20;;;;;;;29.63;32.26;96845.44;5079712;28;20024;-32
2022/05/15 02:07:32;;;;;;;0.20;0.20;;;;;;;29.63;32.28;96850.72;5076373;28;20059;-29
2022/05/15 02:09:57;;;;;;;0.10;0.10;;;;;;;29.63;32.27;96857.81;5082120;28;20107;-30
2022/05/15 02:12:22;;;;;;;0.20;0.20;;;;;;;29.62;32.00;96841.13;5083102;28;20699;-29
2022/05/15 02:14:48;;;;;;;0.20;0.20;;;;;;;29.62;31.93;96846.41;5077482;28;20097;-30
2022/05/15 02:17:13;;;;;;;0.20;0.20;;;;;;;29.61;32.33;96847.34;5076812;28;20772;-31
2022/05/15 02:19:38;;;;;;;0.20;0.20;;;;;;;29.61;32.16;96847.34;5082284;28;20035;-29
2022/05/15 02:22:04;;;;;;;0.28;0.28;;;;;;;29.61;32.19;96842.06;5083773;28;20441;-29
2022/05/15 02:24:29;;;;;;;0.40;0.28;;;;;;;29.61;32.18;96844.72;5082368;28;20029;-29
2022/05/15 02:26:55;;;;;;;0.28;0.28;;;;;;;29.60;32.48;96835.09;5079873;28;20032;-31
2022/05/15 02:29:20;;;;;;;0.20;0.20;;;;;;;29.62;32.16;96829.69;5081660;28;20033;-30
2022/05/15 02:31:45;;;;;;;0.30;0.20;;;;;;;29.60;32.40;96833.28;5080549;28;20370;-30
2022/05/15 02:34:11;;;;;;;0.20;0.20;;;;;;;29.60;31.89;96838.56;5082496;28;20262;-31
2022/05/15 02:36:36;;;;;;;0.10;0.10;;;;;;;29.60;32.13;96837.75;5081441;28;20035;-29
2022/05/15 02:39:02;;;;;;;0.15;0.15;;;;;;;29.60;32.03;96832.47;5081647;28;20035;-31
2022/05/15 02:41:27;;;;;;;0.20;0.20;;;;;;;29.60;32.08;96835.09;5081024;28;20036;-30
2022/05/15 02:43:52;;;;;;;0.55;0.20;;;;;;;29.60;31.80;96832.47;5078642;28;20036;-30
2022/05/15 02:46:18;;;;;;;0.20;0.20;;;;;;;29.58;31.94;96824.66;5081572;28;20097;-31
2022/05/15 02:51:27;;;;;;;0.45;0.20;;;;;;;29.60;31.97;96827.19;5078893;28;20043;-29
2022/05/15 02:53:52;;;;;;;0.40;0.40;;;;;;;29.58;32.06;96823.78;5087033;28;20031;-31
2022/05/15 02:56:21;;;;;;;0.20;0.20;;;;;;;29.57;32.19;96822.09;5085298;28;20031;-30
2022/05/15 02:58:46;;;;;;;0.20;0.20;;;;;;;29.58;32.11;96831.72;5080298;28;20100;-30
2022/05/15 03:01:11;;;;;;;0.20;0.20;;;;;;;29.57;32.30;96828.25;5085544;28;20032;-32
2022/05/15 03:03:37;;;;;;;0.20;0.20;;;;;;;29.57;31.68;96822.09;5085872;28;20093;-34
2022/05/15 03:06:03;;;;;;;0.40;0.20;;;;;;;29.56;31.80;96825.69;5083668;28;20638;-30
2022/05/15 03:08:29;;;;;;;0.32;0.10;;;;;;;29.56;31.78;96820.41;5083868;28;20772;-28
2022/05/15 03:10:54;;;;;;;0.20;0.20;;;;;;;29.56;32.27;96830.97;5087775;28;20030;-32
2022/05/15 03:13:19;;;;;;;0.10;0.10;;;;;;;29.55;32.24;96830.13;5084443;28;20032;-31
2022/05/15 03:15:45;;;;;;;0.40;0.30;;;;;;;29.55;31.87;96826.63;5081901;28;20506;-30
2022/05/15 03:18:10;;;;;;;0.17;0.17;;;;;;;29.56;31.99;96825.69;5078928;28;20137;-32
2022/05/15 03:20:36;;;;;;;0.17;0.17;;;;;;;29.55;32.11;96830.13;5083591;28;20028;-30
2022/05/15 03:23:01;;;;;;;0.28;0.25;;;;;;;29.54;32.44;96828.44;5084859;28;20082;-30
2022/05/15 03:25:27;;;;;;;0.20;0.20;;;;;;;29.55;32.06;96824.84;5084420;28;20028;-30
2022/05/15 03:27:54;;;;;;;0.20;0.20;;;;;;;29.55;32.07;96829.28;5083765;28;20035;-30
2022/05/15 03:30:19;;;;;;;0.30;0.28;;;;;;;29.54;32.11;96824.94;5085743;28;20034;-31
2022/05/15 03:32:45;;;;;;;0.10;0.10;;;;;;;29.54;31.87;96827.59;5085578;28;20053;-30
2022/05/15 03:35:11;;;;;;;0.10;0.10;;;;;;;29.54;31.88;96830.22;5082628;27;20047;-31
2022/05/15 03:37:37;;;;;;;0.10;0.10;;;;;;;29.54;31.96;96832.88;5083499;28;20058;-29
2022/05/15 03:40:04;;;;;;;0.20;0.20;;;;;;;29.53;31.73;96836.47;5085144;28;20101;-30
2022/05/15 03:42:29;;;;;;;0.20;0.20;;;;;;;29.53;32.13;96841.75;5084522;28;20036;-30
2022/05/15 03:44:55;;;;;;;0.10;0.10;;;;;;;29.53;31.92;96842.59;5082379;28;20081;-29
2022/05/15 03:47:20;;;;;;;0.20;0.20;;;;;;;29.53;32.18;96847.03;5083491;28;20031;-31
2022/05/15 03:49:46;;;;;;;0.20;0.20;;;;;;;29.53;32.02;96847.03;5085004;28;20101;-30
2022/05/15 03:52:11;;;;;;;0.20;0.20;;;;;;;29.52;31.88;96850.63;5082701;28;20120;-30
2022/05/15 03:54:36;;;;;;;0.50;0.20;;;;;;;29.51;31.81;96848.88;5083111;28;20126;-30
2022/05/15 03:57:02;;;;;;;0.10;0.10;;;;;;;29.52;32.03;96847.97;5083788;28;20059;-30
2022/05/15 03:59:33;;;;;;;0.43;0.30;;;;;;;29.51;31.81;96852.41;5080739;28;20144;-32
2022/05/15 04:01:59;;;;;;;0.20;0.20;;;;;;;29.51;31.83;96840.94;5081475;28;21065;-30
2022/05/15 04:04:24;;;;;;;0.20;0.20;;;;;;;29.51;32.05;96849.75;5085643;28;20067;-30
2022/05/15 04:06:49;;;;;;;0.17;0.15;;;;;;;29.50;32.17;96845.41;5086254;28;20020;-31
2022/05/15 04:09:15;;;;;;;0.20;0.20;;;;;;;29.50;32.01;96853.31;5085420;28;20063;-34
2022/05/15 04:11:40;;;;;;;0.20;0.20;;;;;;;29.50;32.08;96842.75;5085140;28;20555;-29
2022/05/15 04:14:06;;;;;;;0.15;0.15;;;;;;;29.50;32.04;96841.91;5084021;28;20856;-34
2022/05/15 04:16:31;;;;;;;1.17;0.30;;;;;;;29.50;31.74;96841.91;5080574;28;20028;-34
2022/05/15 04:18:57;;;;;;;0.20;0.20;;;;;;;29.50;31.89;96845.41;5081379;28;20028;-32
2022/05/15 04:21:22;;;;;;;0.10;0.10;;;;;;;29.50;32.10;96841.91;5083324;28;20035;-31
2022/05/15 04:23:48;;;;;;;0.20;0.20;;;;;;;29.49;31.67;96835.81;5082633;28;20028;-30
2022/05/15 04:26:13;;;;;;;0.22;0.20;;;;;;;29.48;31.80;96845.50;5085059;28;20028;-32
2022/05/15 04:28:39;;;;;;;0.20;0.20;;;;;;;29.50;31.96;96847.19;5083843;28;20106;-31
2022/05/15 04:31:04;;;;;;;0.20;0.20;;;;;;;29.50;31.80;96847.19;5082723;28;20042;-31
2022/05/15 04:33:30;;;;;;;0.25;0.25;;;;;;;29.49;31.80;96846.38;5084792;28;20028;-30
2022/05/15 04:35:55;;;;;;;0.17;0.17;;;;;;;29.48;32.04;96844.66;5085034;28;20378;-34
2022/05/15 04:38:20;;;;;;;0.20;0.20;;;;;;;29.48;32.02;96836.72;5085864;28;20046;-28
2022/05/15 04:40:46;;;;;;;0.20;0.20;;;;;;;29.47;31.82;96843.81;5082551;28;20469;-31
2022/05/15 04:43:11;;;;;;;0.40;0.20;;;;;;;29.47;31.76;96838.53;5082195;28;20035;-30
2022/05/15 04:45:37;;;;;;;0.30;0.30;;;;;;;29.47;32.09;96833.25;5083196;28;20031;-28
2022/05/15 04:48:02;;;;;;;0.28;0.28;;;;;;;29.48;32.00;96836.72;5081053;28;20067;-28
2022/05/15 04:50:27;;;;;;;0.22;0.20;;;;;;;29.48;31.99;96834.94;5079665;28;20491;-29
2022/05/15 04:52:53;;;;;;;0.20;0.20;;;;;;;29.48;31.73;96834.94;5084632;28;20482;-29
2022/05/15 04:55:18;;;;;;;0.10;0.10;;;;;;;29.48;31.96;96837.59;5082247;28;20065;-32
2022/05/15 04:57:44;;;;;;;0.20;0.20;;;;;;;29.48;32.01;96840.22;5083489;28;20063;-32
2022/05/15 05:00:12;;;;;;;0.15;0.15;;;;;;;29.48;31.90;96840.22;5084046;28;20036;-30
2022/05/15 05:02:37;;;;;;;0.20;0.20;;;;;;;29.50;31.91;96836.63;5082193;28;20039;-30
2022/05/15 05:05:03;;;;;;;0.30;0.30;;;;;;;29.50;31.81;96841.91;5080692;28;20020;-30
2022/05/15 05:07:29;;;;;;;0.20;0.15;;;;;;;29.49;31.71;96841.09;5082135;28;20127;-30
2022/05/15 05:09:54;;;;;;;0.20;0.13;;;;;;;29.50;31.67;96847.19;5083903;28;20461;-30
2022/05/15 05:12:20;;;;;;;0.35;0.20;;;;;;;29.50;32.05;96852.47;5083897;28;20031;-30
2022/05/15 05:14:45;;;;;;;0.20;0.20;;;;;;;29.50;32.06;96858.59;5082529;28;20031;-29
2022/05/15 05:17:10;;;;;;;0.10;0.10;;;;;;;29.51;31.99;96854.16;5078547;28;20032;-29
2022/05/15 05:19:36;;;;;;;0.15;0.15;;;;;;;29.50;32.03;96853.31;5084654;28;20031;-30
2022/05/15 05:22:02;;;;;;;0.20;0.20;;;;;;;29.51;32.11;96859.44;5083059;28;20050;-30
2022/05/15 05:24:27;;;;;;;0.20;0.20;;;;;;;29.51;31.83;96859.44;5084067;28;20031;-30
2022/05/15 05:26:52;;;;;;;0.20;0.20;;;;;;;29.51;32.11;96855.03;5084881;28;20015;-32
2022/05/15 05:29:18;;;;;;;0.20;0.20;;;;;;;29.52;32.09;96861.19;5076272;28;20035;-30
2022/05/15 05:31:43;;;;;;;0.10;0.10;;;;;;;29.52;32.06;96866.47;5080252;28;20548;-32
2022/05/15 05:34:09;;;;;;;0.17;0.17;;;;;;;29.51;31.78;96864.72;5082771;28;20032;-29
2022/05/15 05:36:34;;;;;;;0.15;0.15;;;;;;;29.51;31.78;96865.59;5084390;28;20639;-30
2022/05/15 05:38:59;;;;;;;0.20;0.20;;;;;;;29.52;32.12;96861.19;5082248;28;20043;-29
2022/05/15 05:41:25;;;;;;;0.30;0.20;;;;;;;29.52;32.08;96869.09;5081270;28;20019;-29
2022/05/15 05:43:50;;;;;;;0.22;0.20;;;;;;;29.51;31.85;96865.59;5080284;28;20633;-31
2022/05/15 05:46:16;;;;;;;0.20;0.20;;;;;;;29.52;31.71;96866.47;5083113;28;20028;-30
2022/05/15 05:48:45;;;;;;;0.40;0.30;;;;;;;29.53;31.68;96860.22;5082329;28;20028;-31
2022/05/15 05:51:12;;;;;;;0.22;0.20;;;;;;;29.53;32.17;96860.22;5080610;28;20433;-28
2022/05/15 05:53:38;;;;;;;0.20;0.17;;;;;;;29.54;31.84;96861.91;5083828;28;20032;-29
2022/05/15 05:56:03;;;;;;;0.10;0.10;;;;;;;29.54;31.70;96864.56;5083902;28;20050;-32
2022/05/15 05:58:29;;;;;;;0.70;0.30;;;;;;;29.54;31.61;96865.41;5078709;28;20036;-30
2022/05/15 06:00:54;;;;;;;0.15;0.15;;;;;;;29.55;31.88;96860.94;5079713;28;20032;-30
2022/05/15 06:06:03;;;;;;;0.20;0.20;;;;;;;29.55;32.14;96859.16;5083011;28;20046;-30
2022/05/15 06:08:30;;;;;;;0.20;0.20;;;;;;;29.56;32.08;96857.38;5080461;28;20031;-29
2022/05/15 06:10:55;;;;;;;0.22;0.20;;;;;;;29.56;31.97;96862.66;5079811;28;20119;-32
2022/05/15 06:13:21;;;;;;;0.10;0.10;;;;;;;29.56;31.60;96858.22;5082810;28;20031;-31
2022/05/15 06:15:46;;;;;;;0.20;0.20;;;;;;;29.56;31.63;96850.28;5082961;28;20073;-31
2022/05/15 06:18:12;;;;;;;0.20;0.20;;;;;;;29.57;32.04;96853.78;5080669;28;20036;-30
2022/05/15 06:20:37;;;;;;;0.32;0.20;;;;;;;29.56;32.17;96852.09;5083408;28;20032;-30
2022/05/15 06:23:03;;;;;;;0.30;0.20;;;;;;;29.57;32.11;96853.78;5080160;28;20036;-33
2022/05/15 06:25:28;;;;;;;0.10;0.10;;;;;;;29.57;32.10;96852.00;5079662;28;20111;-30
2022/05/15 06:27:53;;;;;;;0.17;0.17;;;;;;;29.56;31.80;96852.09;5084165;28;20752;-33
2022/05/15 06:30:19;;;;;;;0.30;0.30;;;;;;;29.58;32.04;96852.84;5086772;28;20028;-31
2022/05/15 06:32:44;;;;;;;0.30;0.28;;;;;;;29.58;31.59;96852.84;5087294;28;20039;-32
2022/05/15 06:35:11;;;;;;;0.20;0.20;;;;;;;29.57;31.77;96845.88;5084679;28;20032;-32
2022/05/15 06:37:36;;;;;;;0.40;0.20;;;;;;;29.58;31.88;96844.91;5084795;28;20040;-30
2022/05/15 06:40:03;;;;;;;0.30;0.30;;;;;;;29.57;31.67;96848.50;5087649;28;20147;-31
2022/05/15 06:42:29;;;;;;;0.20;0.20;;;;;;;29.58;31.81;96847.56;5084875;28;20110;-29
2022/05/15 06:44:55;;;;;;;0.10;0.10;;;;;;;29.57;31.91;96849.38;5079535;28;20024;-33
2022/05/15 06:47:20;;;;;;;0.17;0.17;;;;;;;29.58;31.76;96850.19;5085227;28;20478;-31
2022/05/15 06:49:46;;;;;;;0.57;0.30;;;;;;;29.59;31.69;96846.59;5083902;28;20029;-32
2022/05/15 06:52:11;;;;;;;0.30;0.30;;;;;;;29.57;31.71;96849.38;5082394;28;20752;-30
2022/05/15 06:54:37;;;;;;;0.20;0.20;;;;;;;29.57;31.83;96844.09;5083938;28;20024;-33
2022/05/15 06:59:46;;;;;;;0.20;0.20;;;;;;;29.58;31.63;96850.19;5086084;28;20093;-30
2022/05/15 07:02:12;;;;;;;0.50;0.20;;;;;;;29.58;32.19;96855.47;5084466;28;20043;-30
2022/05/15 07:04:37;;;;;;;0.38;0.20;;;;;;;29.58;31.98;96850.19;5083305;28;20047;-33
2022/05/15 07:07:03;;;;;;;0.10;0.10;;;;;;;29.57;31.78;96844.09;5083983;28;20402;-31
2022/05/15 07:09:29;;;;;;;0.30;0.30;;;;;;;29.58;32.06;96850.19;5086886;28;20116;-32
2022/05/15 07:11:55;;;;;;;0.32;0.28;;;;;;;29.58;31.98;96855.47;5084120;28;20107;-32
2022/05/15 07:14:20;;;;;;;0.50;0.30;;;;;;;29.59;31.92;96858.00;5086053;28;20061;-31
2022/05/15 07:16:46;;;;;;;0.10;0.10;;;;;;;29.58;31.60;96856.31;5087051;28;20036;-32
2022/05/15 07:19:11;;;;;;;0.28;0.28;;;;;;;29.59;31.67;96854.50;5084606;28;20032;-30
2022/05/15 07:21:37;;;;;;;0.38;0.30;;;;;;;29.58;31.48;96851.03;5083704;28;20020;-32
2022/05/15 07:24:02;;;;;;;0.20;0.20;;;;;;;29.59;31.59;96846.59;5085840;28;20043;-31
2022/05/15 07:26:28;;;;;;;0.17;0.17;;;;;;;29.58;31.83;96850.19;5082417;28;20646;-31
2022/05/15 07:28:53;;;;;;;0.30;0.20;;;;;;;29.58;31.85;96856.31;5085989;28;20081;-33
2022/05/15 07:31:19;;;;;;;0.20;0.20;;;;;;;29.59;32.07;96849.22;5085148;28;20031;-30
2022/05/15 07:33:44;;;;;;;0.95;0.30;;;;;;;29.58;32.04;96845.78;5082133;28;20763;-29
2022/05/15 07:36:10;;;;;;;0.40;0.20;;;;;;;29.58;31.65;96850.19;5085843;28;20068;-31
2022/05/15 07:38:35;;;;;;;0.20;0.20;;;;;;;29.59;32.04;96846.59;5084621;28;20599;-31
2022/05/15 07:41:00;;;;;;;0.28;0.28;;;;;;;29.58;31.92;96844.91;5080391;28;20039;-30
2022/05/15 07:43:26;;;;;;;0.20;0.20;;;;;;;29.58;32.15;96845.78;5083280;28;20034;-32
2022/05/15 07:45:51;;;;;;;0.20;0.20;;;;;;;29.59;31.89;96838.66;5086423;28;20089;-31
2022/05/15 07:48:17;;;;;;;0.70;0.40;;;;;;;29.59;31.72;96841.31;5084752;28;20024;-29
2022/05/15 07:50:42;;;;;;;0.40;0.40;;;;;;;29.58;31.63;96832.56;5079719;28;20032;-30
2022/05/15 07:53:07;;;;;;;0.20;0.20;;;;;;;29.59;32.07;96836.03;5085548;28;20021;-33
2022/05/15 07:55:33;;;;;;;0.20;0.20;;;;;;;29.59;32.00;96833.38;5081535;28;20012;-29
2022/05/15 07:57:58;;;;;;;0.47;0.25;;;;;;;29.60;32.04;96829.81;5084213;28;20035;-30
2022/05/15 08:00:24;;;;;;;0.20;0.20;;;;;;;29.59;31.80;96826.31;5082711;28;20039;-30
2022/05/15 08:02:49;;;;;;;1.00;0.20;;;;;;;29.60;31.94;96827.19;5083683;28;21139;-31
2022/05/15 08:08:05;;;;;;;0.30;0.30;;;;;;;29.60;31.67;96816.63;5082351;28;20031;-32
2022/05/15 08:10:39;;;;;;;0.30;0.25;;;;;;;29.60;32.03;96824.53;5085506;28;20032;-31
2022/05/15 08:13:06;;;;;;;0.10;0.10;;;;;;;29.60;32.06;96827.19;5085431;28;20815;-28
2022/05/15 08:15:31;;;;;;;0.40;0.20;;;;;;;29.60;32.17;96828.00;5083957;28;20077;-29
2022/05/15 08:23:33;;;;;;;0.20;0.20;;;;;;;29.60;31.71;96824.53;5078569;28;20038;-30
2022/05/15 08:23:44;;;;;;;0.20;0.20;;;;;;;29.61;31.68;96823.59;5036496;28;20043;-30
2022/05/15 08:26:11;;;;;;;0.20;0.20;;;;;;;29.62;32.05;96833.19;5082052;28;20694;-30
2022/05/15 08:28:36;;;;;;;0.10;0.10;;;;;;;29.62;32.04;96830.56;5082374;28;20797;-32
2022/05/15 08:31:02;;;;;;;0.52;0.10;;;;;;;29.62;31.98;96829.69;5079898;28;20035;-32
2022/05/15 08:33:28;;;;;;;0.22;0.10;;;;;;;29.62;32.08;96830.56;5080078;28;20023;-30
2022/05/15 08:35:53;;;;;;;0.40;0.20;;;;;;;29.63;32.03;96836.69;5081843;28;20036;-30
2022/05/15 08:38:19;;;;;;;0.22;0.22;;;;;;;29.62;31.81;96833.19;5085816;28;20081;-32
2022/05/15 08:40:57;;;;;;;0.40;0.25;;;;;;;29.63;31.77;96826.94;5082524;28;20024;-30
2022/05/15 08:43:36;;;;;;;0.20;0.20;;;;;;;29.63;31.90;96826.94;5070211;28;20062;-29
2022/05/15 08:46:05;;;;;;;0.50;0.20;;;;;;;29.63;32.06;96821.66;5075470;28;20067;-30
2022/05/15 08:48:33;;;;;;;0.20;0.20;;;;;;;29.64;32.01;96819.88;5077930;28;20032;-29
2022/05/15 08:50:59;;;;;;;0.20;0.20;;;;;;;29.63;32.11;96816.38;5061651;28;20034;-29
2022/05/15 08:53:32;;;;;;;0.15;0.15;;;;;;;29.63;31.77;96819.03;5067629;28;20036;-31
2022/05/15 08:55:59;;;;;;;0.95;0.30;;;;;;;29.64;32.15;96822.53;5082270;28;20089;-31
2022/05/15 08:58:36;;;;;;;0.68;0.32;;;;;;;29.64;32.04;96822.53;5084339;28;20112;-32
2022/05/15 09:01:05;;;;;;;0.35;0.30;;;;;;;29.64;32.11;96823.38;5082301;28;20585;-31
2022/05/15 09:03:33;;;;;;;0.40;0.20;;;;;;;29.65;31.99;96824.22;5065096;28;20039;-29
2022/05/15 09:06:08;;;;;;;0.20;0.20;;;;;;;29.65;32.04;96830.34;5081075;28;20023;-30
2022/05/15 09:09:01;;;;;;;0.20;0.20;;;;;;;29.65;31.90;96830.34;5081818;28;20752;-31
2022/05/15 09:11:47;;;;;;;0.20;0.20;;;;;;;29.67;31.84;96832.88;5080991;28;20137;-32
2022/05/15 09:14:18;;;;;;;1.48;0.38;;;;;;;29.66;32.12;96826.75;5082167;28;20076;-29
2022/05/15 09:16:53;;;;;;;0.20;0.20;;;;;;;29.66;31.62;96826.75;5081451;28;20070;-31
2022/05/15 09:19:19;;;;;;;0.20;0.20;;;;;;;29.65;31.73;96824.22;5083917;28;20047;-33
2022/05/15 09:21:44;;;;;;;0.20;0.13;;;;;;;29.67;31.99;96831.06;5084366;28;20028;-33
2022/05/15 09:24:32;;;;;;;0.10;0.10;;;;;;;29.65;31.86;96819.78;5084567;28;20051;-30
2022/05/15 09:27:11;;;;;;;0.43;0.30;;;;;;;29.67;31.72;96820.50;5075020;28;20141;-31
2022/05/15 09:29:36;;;;;;;0.20;0.20;;;;;;;29.67;32.17;96817.88;5083592;28;20462;-29
2022/05/15 09:32:03;;;;;;;0.35;0.20;;;;;;;29.67;31.87;96820.50;5080784;28;20028;-30
2022/05/15 09:34:29;;;;;;;0.75;0.25;;;;;;;29.68;31.82;96813.44;5080798;28;20036;-30
2022/05/15 09:38:26;;;;;;;0.40;0.20;;;;;;;29.68;31.68;96809.00;5085859;28;20121;-29
2022/05/15 09:39:51;;;;;;;0.28;0.28;;;;;;;29.69;31.82;96810.69;5083823;28;20093;-31
2022/05/15 09:45:07;;;;;;;0.20;0.20;;;;;;;29.69;31.76;96815.13;5083417;28;20042;-29
2022/05/15 09:47:39;;;;;;;0.13;0.13;;;;;;;29.69;31.78;96821.25;5084047;28;20060;-30
2022/05/15 09:50:08;;;;;;;0.38;0.15;;;;;;;29.70;31.89;96814.16;5083978;28;20035;-32
2022/05/15 09:52:39;;;;;;;0.30;0.30;;;;;;;29.68;32.30;96811.63;5077913;28;20040;-31
2022/05/15 09:55:15;;;;;;;0.15;0.15;;;;;;;29.71;31.94;96814.06;5081122;28;20027;-31
2022/05/15 09:57:58;;;;;;;0.20;0.20;;;;;;;29.71;31.78;96803.50;5081879;28;20043;-30
2022/05/15 10:00:27;;;;;;;0.30;0.30;;;;;;;29.71;31.89;96805.31;5086330;28;20316;-31
2022/05/15 10:02:53;;;;;;;0.17;0.17;;;;;;;29.70;32.27;96801.81;5086353;28;20120;-30
2022/05/15 10:05:28;;;;;;;0.57;0.20;;;;;;;29.71;32.09;96800.84;5089724;28;20689;-31
2022/05/15 10:08:01;;;;;;;0.32;0.20;;;;;;;29.71;32.18;96792.94;5086808;28;20240;-32
2022/05/15 10:10:32;;;;;;;0.20;0.20;;;;;;;29.72;32.19;96799.06;5085604;28;20031;-30
2022/05/15 10:13:09;;;;;;;0.10;0.10;;;;;;;29.73;32.32;96785.78;5088521;28;20039;-30
2022/05/15 10:16:12;;;;;;;0.20;0.20;;;;;;;29.73;32.18;96782.28;5070825;28;20080;-32
2022/05/15 10:18:50;;;;;;;0.25;0.20;;;;;;;29.73;31.87;96785.78;5045862;28;20063;-32
2022/05/15 10:21:15;;;;;;;0.25;0.20;;;;;;;29.73;32.22;96791.06;5087486;28;20032;-29
2022/05/15 10:23:47;;;;;;;0.20;0.20;;;;;;;29.74;32.14;96791.88;5088584;28;20393;-31
2022/05/15 10:26:20;;;;;;;0.40;0.13;;;;;;;29.74;32.24;96783.97;5078065;28;20106;-36
2022/05/15 10:29:10;;;;;;;0.20;0.20;;;;;;;29.75;32.01;96782.16;5084099;28;20032;-32
2022/05/15 10:31:37;;;;;;;0.20;0.20;;;;;;;29.75;32.35;96787.44;5086113;28;20143;-30
2022/05/15 10:34:04;;;;;;;0.30;0.17;;;;;;;29.75;31.80;96774.25;5081050;28;20032;-31
2022/05/15 10:37:28;;;;;;;0.10;0.10;;;;;;;29.76;32.33;96781.22;5085460;28;20039;-33
2022/05/15 10:40:31;;;;;;;0.20;0.20;;;;;;;29.76;31.85;96778.56;5084242;28;20052;-32
2022/05/15 10:43:06;;;;;;;0.32;0.32;;;;;;;29.76;32.19;96774.16;5088037;28;20044;-31
2022/05/15 10:45:51;;;;;;;0.10;0.10;;;;;;;29.75;32.06;96767.16;5087388;28;20047;-32
2022/05/15 10:48:34;;;;;;;0.10;0.10;;;;;;;29.77;31.87;96759.13;5084144;28;20031;-28
2022/05/15 10:51:07;;;;;;;0.20;0.20;;;;;;;29.76;32.26;96758.31;5082490;28;20034;-29
2022/05/15 10:59:41;;;;;;;0.30;0.30;;;;;;;29.77;32.18;96744.13;5087927;28;20150;-30
2022/05/15 11:02:30;;;;;;;0.20;0.20;;;;;;;29.77;31.98;96743.28;5081621;28;20100;-31
2022/05/15 11:05:01;;;;;;;0.10;0.10;;;;;;;29.79;32.29;96736.09;5082475;28;20031;-29
2022/05/15 11:07:52;;;;;;;0.13;0.13;;;;;;;29.78;32.24;96742.34;5084014;28;20796;-31
2022/05/15 11:10:41;;;;;;;0.40;0.40;;;;;;;29.79;32.23;96744.03;5075726;28;20027;-31
2022/05/15 11:13:11;;;;;;;0.20;0.10;;;;;;;29.79;31.92;96733.47;5083494;28;20036;-32
2022/05/15 11:16:18;;;;;;;0.52;0.20;;;;;;;29.79;32.08;96728.19;5085603;28;20085;-29
2022/05/15 11:19:06;;;;;;;0.20;0.20;;;;;;;29.80;32.34;96722.78;5073568;28;20377;-29
2022/05/15 11:21:40;;;;;;;0.17;0.17;;;;;;;29.80;32.05;96722.78;5087080;28;20053;-29
2022/05/15 11:24:38;;;;;;;0.25;0.10;;;;;;;29.80;32.23;96727.22;5085857;28;20028;-31
2022/05/15 11:27:27;;;;;;;0.15;0.15;;;;;;;29.81;32.34;96729.75;5084201;28;20056;-31
2022/05/15 11:29:54;;;;;;;0.20;0.20;;;;;;;29.82;32.00;96730.59;5085174;28;20036;-32
2022/05/15 11:32:56;;;;;;;0.40;0.30;;;;;;;29.83;32.25;96732.28;5083259;28;20051;-32
2022/05/15 11:35:31;;;;;;;0.43;0.25;;;;;;;29.84;32.15;96728.69;5085039;28;20845;-28
2022/05/15 11:37:56;;;;;;;0.10;0.10;;;;;;;29.84;32.26;96707.56;5085883;28;20038;-30
2022/05/15 11:40:32;;;;;;;0.20;0.20;;;;;;;29.85;32.40;96719.81;5086140;28;20019;-32
2022/05/15 11:43:00;;;;;;;0.20;0.20;;;;;;;29.85;31.93;96706.59;5083282;28;20147;-30
2022/05/15 11:45:30;;;;;;;0.20;0.20;;;;;;;29.85;31.98;96710.09;5100076;28;20769;-30
2022/05/15 11:48:17;;;;;;;0.28;0.22;;;;;;;29.85;31.98;96704.81;5086100;28;20039;-33
2022/05/15 11:50:53;;;;;;;0.45;0.20;;;;;;;29.85;32.11;96707.47;5081773;28;20028;-30
2022/05/15 11:53:28;;;;;;;0.13;0.13;;;;;;;29.87;32.17;96702.06;5083932;28;20031;-32
2022/05/15 11:55:54;;;;;;;0.20;0.20;;;;;;;29.88;32.26;96698.47;5081223;28;20031;-30
2022/05/15 11:58:36;;;;;;;0.20;0.20;;;;;;;29.88;32.42;96701.09;5082930;28;20028;-30
2022/05/15 12:01:17;;;;;;;0.22;0.20;;;;;;;29.88;32.27;96701.09;5083212;28;20172;-31
2022/05/15 12:03:47;;;;;;;0.40;0.13;;;;;;;29.90;32.31;96701.00;5084033;28;20036;-32
2022/05/15 12:06:14;;;;;;;0.15;0.10;;;;;;;29.90;31.77;96696.53;5084398;28;20043;-30